Time;durP1;ratioP1;P1;durP2;ratioP2;P2;SDS_P1;SDS_P2;PMS_P1;PMS_P2;Temp;Humidity;BMP_temperature;BMP_pressure;BME280_temperature;BME280_humidity;BME280_pressure;Samples;Min_cycle;Max_cycle;Signal;HPM_P1;HPM_P2
2022/01/01 00:00:18;;;;;;;27.15;24.35;;;20.80;53.90;;;;;;4973391;28;20186;-75
2022/01/01 00:02:45;;;;;;;24.55;22.15;;;20.70;53.80;;;;;;4957352;29;20190;-75
2022/01/01 00:05:12;;;;;;;24.58;22.27;;;20.70;53.90;;;;;;4956677;29;20197;-74
2022/01/01 00:07:39;;;;;;;23.00;20.80;;;20.70;53.90;;;;;;4956465;29;20293;-75
2022/01/01 00:10:07;;;;;;;23.95;21.60;;;20.70;53.90;;;;;;4957175;29;20253;-75
2022/01/01 00:12:33;;;;;;;23.67;21.38;;;20.80;54.00;;;;;;4939904;29;20210;-76
2022/01/01 00:15:00;;;;;;;24.02;21.75;;;20.80;54.00;;;;;;4969313;28;20198;-75
2022/01/01 00:17:26;;;;;;;23.63;21.23;;;20.80;54.00;;;;;;4957587;28;20277;-75
2022/01/01 00:19:52;;;;;;;23.98;21.63;;;20.80;53.90;;;;;;4945820;28;20272;-75
2022/01/01 00:22:18;;;;;;;23.50;21.20;;;20.80;53.90;;;;;;4963621;28;20245;-76
2022/01/01 00:24:44;;;;;;;24.50;22.10;;;20.80;53.90;;;;;;4936389;29;20281;-75
2022/01/01 00:27:10;;;;;;;24.75;22.30;;;20.80;53.80;;;;;;4936251;29;20236;-76
2022/01/01 00:29:35;;;;;;;23.50;21.35;;;20.70;53.80;;;;;;4927354;29;20187;-76
2022/01/01 00:32:01;;;;;;;24.33;22.02;;;20.70;53.80;;;;;;4928466;29;20198;-74
2022/01/01 00:34:27;;;;;;;23.83;21.52;;;20.70;53.70;;;;;;4942865;29;20191;-75
2022/01/01 00:36:53;;;;;;;23.33;21.00;;;20.80;53.80;;;;;;4942706;29;20179;-74
2022/01/01 00:39:18;;;;;;;23.48;21.17;;;20.80;53.80;;;;;;4927081;29;20186;-76
2022/01/01 00:41:44;;;;;;;22.00;19.90;;;20.70;53.80;;;;;;4926567;29;20205;-76
2022/01/01 00:44:10;;;;;;;24.05;21.55;;;20.80;53.80;;;;;;4927077;29;20229;-75
2022/01/01 00:46:36;;;;;;;22.65;20.58;;;20.70;53.70;;;;;;4927547;29;20183;-76
2022/01/01 00:49:01;;;;;;;21.70;19.50;;;20.70;53.70;;;;;;4918783;28;20221;-74
2022/01/01 00:51:27;;;;;;;23.27;21.10;;;20.70;53.80;;;;;;4975513;28;20201;-75
2022/01/01 00:53:54;;;;;;;22.70;20.40;;;20.70;53.80;;;;;;4965605;28;20428;-74
2022/01/01 00:56:19;;;;;;;21.98;19.77;;;20.80;53.80;;;;;;4961791;28;20551;-75
2022/01/01 00:58:45;;;;;;;21.58;19.48;;;20.70;53.70;;;;;;4969147;28;20207;-75
2022/01/01 01:01:11;;;;;;;22.25;20.05;;;20.70;53.80;;;;;;4970842;28;20197;-75
2022/01/01 01:03:37;;;;;;;21.80;19.75;;;20.70;53.80;;;;;;4973683;28;20189;-75
2022/01/01 01:06:02;;;;;;;21.15;19.10;;;20.70;53.80;;;;;;4951143;28;20281;-76
2022/01/01 01:08:30;;;;;;;20.70;18.70;;;20.70;53.80;;;;;;4942645;28;20209;-76
2022/01/01 01:10:57;;;;;;;20.60;18.70;;;20.70;53.70;;;;;;4976425;28;20197;-75
2022/01/01 01:13:26;;;;;;;21.08;18.88;;;20.70;53.70;;;;;;4943244;28;20210;-75
2022/01/01 01:15:52;;;;;;;20.40;18.42;;;20.70;53.70;;;;;;4976162;28;20249;-76
2022/01/01 01:18:18;;;;;;;20.67;18.73;;;20.70;53.80;;;;;;4942425;28;20268;-74
2022/01/01 01:20:44;;;;;;;20.75;18.75;;;20.70;53.70;;;;;;4955907;29;20214;-75
2022/01/01 01:23:09;;;;;;;19.88;17.88;;;20.70;53.70;;;;;;4975003;28;20197;-75
2022/01/01 01:25:42;;;;;;;21.33;19.23;;;20.70;53.80;;;;;;4958259;28;20248;-74
2022/01/01 01:28:10;;;;;;;19.35;17.50;;;20.70;53.70;;;;;;4958684;28;20217;-75
2022/01/01 01:30:38;;;;;;;19.95;18.10;;;20.70;53.70;;;;;;4974641;28;20189;-75
2022/01/01 01:33:07;;;;;;;19.73;17.80;;;20.70;53.70;;;;;;4958193;28;20292;-75
2022/01/01 01:35:33;;;;;;;18.25;16.55;;;20.80;53.80;;;;;;4958067;28;20276;-74
2022/01/01 01:37:59;;;;;;;20.75;17.23;;;20.70;53.70;;;;;;4970748;28;20303;-75
2022/01/01 01:40:27;;;;;;;17.88;16.15;;;20.70;53.70;;;;;;4957898;28;20190;-74
2022/01/01 01:42:52;;;;;;;18.65;16.73;;;20.70;53.70;;;;;;4923704;29;20321;-75
2022/01/01 01:45:21;;;;;;;18.42;16.33;;;20.70;53.70;;;;;;4956352;28;20273;-75
2022/01/01 01:47:49;;;;;;;18.83;16.95;;;20.70;53.70;;;;;;4939412;29;20210;-75
2022/01/01 01:50:19;;;;;;;18.17;16.38;;;20.70;53.60;;;;;;4942503;28;20197;-75
2022/01/01 01:52:51;;;;;;;18.50;16.75;;;20.70;53.70;;;;;;4939721;29;20214;-75
2022/01/01 01:55:17;;;;;;;18.05;16.33;;;20.70;53.60;;;;;;4939770;29;20193;-75
2022/01/01 01:57:44;;;;;;;17.98;16.20;;;20.70;53.60;;;;;;4954841;28;20207;-75
2022/01/01 02:02:53;;;;;;;18.30;16.60;;;20.70;53.60;;;;;;4954918;28;20175;-74
2022/01/01 02:05:19;;;;;;;17.10;15.40;;;20.70;53.60;;;;;;4938834;29;20182;-75
2022/01/01 02:07:47;;;;;;;17.83;16.10;;;20.70;53.60;;;;;;4954542;29;20701;-75
2022/01/01 02:10:13;;;;;;;17.45;15.77;;;20.70;53.60;;;;;;4938796;29;20281;-75
2022/01/01 02:12:41;;;;;;;17.17;15.48;;;20.70;53.60;;;;;;4954956;28;20210;-75
2022/01/01 02:17:33;;;;;;;15.93;14.32;;;20.70;53.50;;;;;;4970623;28;20265;-74
2022/01/01 02:20:21;;;;;;;15.75;14.15;;;20.80;53.60;;;;;;4942001;28;20190;-76
2022/01/01 02:22:48;;;;;;;15.40;13.90;;;20.70;53.50;;;;;;4941915;28;20193;-75
2022/01/01 02:25:17;;;;;;;16.25;14.65;;;20.70;53.60;;;;;;4941664;28;20225;-75
2022/01/01 02:27:43;;;;;;;16.08;14.57;;;20.70;53.50;;;;;;4957558;28;20213;-75
2022/01/01 02:30:13;;;;;;;14.98;13.57;;;20.70;53.50;;;;;;4974426;28;20221;-75
2022/01/01 02:32:39;;;;;;;15.48;14.05;;;20.70;53.50;;;;;;4957727;28;20336;-74
2022/01/01 02:35:10;;;;;;;15.77;14.38;;;20.70;53.50;;;;;;4957706;28;20232;-75
2022/01/01 02:37:38;;;;;;;16.45;14.85;;;20.70;53.50;;;;;;4957505;28;20213;-76
2022/01/01 02:40:06;;;;;;;15.27;13.88;;;20.70;53.40;;;;;;4957929;28;20189;-74
2022/01/01 02:42:31;;;;;;;14.05;12.80;;;20.70;53.40;;;;;;4957592;28;20276;-74
2022/01/01 02:44:59;;;;;;;14.98;13.45;;;20.70;53.40;;;;;;4957746;28;20272;-75
2022/01/01 02:47:26;;;;;;;15.25;13.85;;;20.70;53.40;;;;;;4941989;28;20209;-75
2022/01/01 02:49:51;;;;;;;14.82;13.43;;;20.70;53.40;;;;;;4956852;28;20220;-75
2022/01/01 02:52:18;;;;;;;14.40;13.13;;;20.70;53.40;;;;;;4956751;28;20233;-74
2022/01/01 02:54:43;;;;;;;14.32;13.02;;;20.70;53.40;;;;;;4956970;28;20189;-75
2022/01/01 02:57:09;;;;;;;14.35;13.05;;;20.70;53.40;;;;;;4957594;28;20288;-75
2022/01/01 02:59:35;;;;;;;14.13;12.73;;;20.70;53.40;;;;;;4957767;28;20193;-75
2022/01/01 03:02:01;;;;;;;13.52;12.25;;;20.70;53.40;;;;;;4958050;28;20192;-75
2022/01/01 03:04:27;;;;;;;12.65;11.45;;;20.70;53.30;;;;;;4974666;28;20217;-75
2022/01/01 03:06:55;;;;;;;13.43;12.23;;;20.70;53.40;;;;;;4957722;28;20190;-75
2022/01/01 03:09:24;;;;;;;13.23;12.00;;;20.70;53.40;;;;;;4919972;29;20187;-75
2022/01/01 03:11:51;;;;;;;12.88;11.68;;;20.70;53.30;;;;;;4934822;29;20191;-74
2022/01/01 03:14:17;;;;;;;13.38;12.02;;;20.70;53.30;;;;;;4953975;29;20202;-75
2022/01/01 03:16:45;;;;;;;13.25;11.95;;;20.70;53.30;;;;;;4950978;29;20203;-75
2022/01/01 03:19:11;;;;;;;13.02;11.82;;;20.70;53.30;;;;;;4953256;28;20218;-75
2022/01/01 03:21:38;;;;;;;12.32;11.20;;;20.70;53.30;;;;;;4948732;29;20182;-75
2022/01/01 03:24:04;;;;;;;12.00;11.00;;;20.70;53.20;;;;;;4942015;28;20186;-74
2022/01/01 03:26:30;;;;;;;12.80;11.60;;;20.70;53.20;;;;;;4975216;28;20186;-75
2022/01/01 03:28:56;;;;;;;12.07;10.98;;;20.70;53.20;;;;;;4957809;28;20206;-75
2022/01/01 03:31:24;;;;;;;12.32;11.23;;;20.70;53.20;;;;;;4974539;28;20188;-75
2022/01/01 03:33:51;;;;;;;11.82;10.82;;;20.70;53.20;;;;;;4920408;29;20694;-74
2022/01/01 03:36:16;;;;;;;11.88;10.88;;;20.70;53.20;;;;;;4920204;29;20195;-74
2022/01/01 03:38:42;;;;;;;12.68;11.48;;;20.70;53.20;;;;;;4936242;29;20215;-75
2022/01/01 03:41:08;;;;;;;12.95;11.65;;;20.70;53.20;;;;;;4905031;29;20191;-75
2022/01/01 03:43:34;;;;;;;12.48;11.27;;;20.70;53.10;;;;;;4920407;29;20187;-74
2022/01/01 03:45:59;;;;;;;12.63;11.43;;;20.70;53.20;;;;;;4936289;29;20258;-75
2022/01/01 03:48:25;;;;;;;12.73;11.52;;;20.70;53.10;;;;;;4904393;29;20645;-75
2022/01/01 03:50:51;;;;;;;12.43;11.32;;;20.70;53.10;;;;;;4936193;29;20214;-75
2022/01/01 03:53:16;;;;;;;12.73;11.43;;;20.70;53.10;;;;;;4943103;28;20201;-75
2022/01/01 03:55:43;;;;;;;12.35;11.25;;;20.70;53.00;;;;;;4943066;28;20240;-75
2022/01/01 03:58:09;;;;;;;12.52;11.23;;;20.70;53.10;;;;;;4976320;28;20206;-75
2022/01/01 04:00:36;;;;;;;12.88;11.57;;;20.70;53.10;;;;;;4959194;28;20189;-74
2022/01/01 04:03:11;;;;;;;12.50;11.30;;;20.70;53.10;;;;;;4959640;28;20189;-74
2022/01/01 04:05:42;;;;;;;11.35;10.23;;;20.70;53.00;;;;;;4943278;28;20263;-75
2022/01/01 04:08:09;;;;;;;11.85;10.65;;;20.70;53.00;;;;;;4958256;28;20220;-74
2022/01/01 04:10:37;;;;;;;11.82;10.70;;;20.70;52.90;;;;;;4939918;28;20232;-75
2022/01/01 04:13:05;;;;;;;11.30;10.30;;;20.70;53.00;;;;;;4956462;28;20213;-75
2022/01/01 04:15:32;;;;;;;11.38;10.27;;;20.70;53.00;;;;;;4976175;28;20182;-75
2022/01/01 04:18:08;;;;;;;12.13;10.93;;;20.70;53.00;;;;;;4960647;28;20210;-75
2022/01/01 04:20:34;;;;;;;11.18;10.07;;;20.70;53.00;;;;;;4942426;29;20253;-75
2022/01/01 04:23:00;;;;;;;11.00;10.00;;;20.70;52.90;;;;;;4948824;28;20186;-75
2022/01/01 04:25:27;;;;;;;11.85;10.75;;;20.70;52.90;;;;;;4948261;28;20193;-75
2022/01/01 04:27:55;;;;;;;11.27;10.20;;;20.70;52.90;;;;;;4964607;28;20213;-74
2022/01/01 04:30:21;;;;;;;11.23;10.13;;;20.70;53.00;;;;;;4965399;28;20198;-75
2022/01/01 04:32:48;;;;;;;10.80;9.80;;;20.70;52.90;;;;;;4964741;28;20217;-74
2022/01/01 04:35:15;;;;;;;10.45;9.45;;;20.70;52.90;;;;;;4948760;28;20292;-74
2022/01/01 04:37:41;;;;;;;10.32;9.32;;;20.70;52.90;;;;;;4965220;28;20209;-75
2022/01/01 04:40:09;;;;;;;10.75;9.75;;;20.70;52.90;;;;;;4950010;28;20186;-74
2022/01/01 04:42:35;;;;;;;10.27;9.27;;;20.70;52.90;;;;;;4983669;28;20205;-74
2022/01/01 04:45:01;;;;;;;10.35;9.35;;;20.70;52.90;;;;;;4983008;28;20201;-74
2022/01/01 04:47:28;;;;;;;10.40;9.32;;;20.70;52.90;;;;;;4984619;28;20284;-74
2022/01/01 04:49:54;;;;;;;9.95;9.05;;;20.70;52.90;;;;;;4949795;28;20213;-75
2022/01/01 04:52:20;;;;;;;10.05;9.05;;;20.70;52.80;;;;;;4973929;28;20232;-75
2022/01/01 04:54:46;;;;;;;9.95;9.05;;;20.70;52.80;;;;;;4943279;28;20216;-75
2022/01/01 04:57:12;;;;;;;9.35;8.55;;;20.70;52.90;;;;;;4976376;28;20289;-75
2022/01/01 04:59:40;;;;;;;10.38;9.30;;;20.70;52.80;;;;;;4975620;28;20195;-75
2022/01/01 05:02:07;;;;;;;9.93;8.98;;;20.70;52.80;;;;;;4959351;28;20190;-76
2022/01/01 05:04:35;;;;;;;9.18;8.32;;;20.70;52.80;;;;;;4959139;28;20178;-75
2022/01/01 05:07:03;;;;;;;9.48;8.57;;;20.70;52.80;;;;;;4943089;28;20221;-74
2022/01/01 05:09:29;;;;;;;9.07;8.13;;;20.70;52.70;;;;;;4942710;28;20216;-75
2022/01/01 05:11:55;;;;;;;9.48;8.68;;;20.70;52.70;;;;;;4975960;28;20272;-74
2022/01/01 05:14:21;;;;;;;9.45;8.55;;;20.70;52.70;;;;;;4942315;28;20328;-75
2022/01/01 05:16:47;;;;;;;8.13;7.45;;;20.70;52.80;;;;;;4942746;28;20190;-74
2022/01/01 05:19:15;;;;;;;8.68;7.78;;;20.70;52.70;;;;;;4956175;28;20189;-75
2022/01/01 05:21:41;;;;;;;8.93;8.13;;;20.70;52.70;;;;;;4963476;28;20224;-74
2022/01/01 05:24:08;;;;;;;8.07;7.35;;;20.70;52.70;;;;;;4939374;29;20281;-75
2022/01/01 05:26:34;;;;;;;8.40;7.60;;;20.70;52.60;;;;;;4956301;28;20190;-75
2022/01/01 05:28:59;;;;;;;8.15;7.38;;;20.70;52.60;;;;;;4920475;29;20315;-75
2022/01/01 05:31:26;;;;;;;7.90;7.20;;;20.70;52.60;;;;;;4953407;28;20205;-75
2022/01/01 05:33:53;;;;;;;8.43;7.72;;;20.70;52.60;;;;;;4954472;29;20210;-75
2022/01/01 05:36:19;;;;;;;8.07;7.38;;;20.70;52.50;;;;;;4955551;28;20191;-74
2022/01/01 05:38:46;;;;;;;7.32;6.63;;;20.70;52.60;;;;;;4939742;29;20214;-75
2022/01/01 05:41:12;;;;;;;7.65;6.95;;;20.70;52.70;;;;;;4939796;29;20241;-75
2022/01/01 05:43:39;;;;;;;7.85;7.15;;;20.70;52.50;;;;;;4939751;29;20331;-74
2022/01/01 05:46:05;;;;;;;7.57;6.88;;;20.70;52.60;;;;;;4955716;29;20607;-75
2022/01/01 05:48:32;;;;;;;7.90;7.20;;;20.70;52.60;;;;;;4956000;29;20297;-75
2022/01/01 05:50:58;;;;;;;7.70;7.00;;;20.70;52.50;;;;;;4937102;28;20222;-75
2022/01/01 05:53:24;;;;;;;7.38;6.68;;;20.70;52.50;;;;;;4958727;28;20217;-75
2022/01/01 05:55:50;;;;;;;7.22;6.63;;;20.70;52.50;;;;;;4975551;28;20185;-75
2022/01/01 05:58:17;;;;;;;7.15;6.45;;;20.70;52.50;;;;;;4958563;28;20209;-74
2022/01/01 06:00:43;;;;;;;7.90;7.20;;;20.70;52.50;;;;;;4942500;28;20177;-76
2022/01/01 06:03:09;;;;;;;7.45;6.75;;;20.70;52.50;;;;;;4942212;28;20240;-75
2022/01/01 06:05:35;;;;;;;6.75;6.15;;;20.70;52.50;;;;;;4958092;28;20712;-74
2022/01/01 06:08:01;;;;;;;6.80;6.20;;;20.70;52.50;;;;;;4957960;28;20213;-75
2022/01/01 06:10:28;;;;;;;7.63;6.93;;;20.70;53.00;;;;;;4958117;28;20213;-74
2022/01/01 06:12:55;;;;;;;6.63;6.03;;;20.70;52.50;;;;;;4975457;28;20201;-75
2022/01/01 06:15:21;;;;;;;7.15;6.45;;;20.70;52.50;;;;;;4973593;28;20205;-74
2022/01/01 06:17:47;;;;;;;6.57;6.00;;;20.70;52.50;;;;;;4957801;28;20212;-74
2022/01/01 06:20:14;;;;;;;6.95;6.35;;;20.70;52.40;;;;;;4941453;28;20233;-75
2022/01/01 06:22:42;;;;;;;6.50;6.00;;;20.70;52.50;;;;;;4954412;29;20681;-74
2022/01/01 06:25:08;;;;;;;7.03;6.43;;;20.70;52.40;;;;;;4954464;28;20187;-74
2022/01/01 06:27:34;;;;;;;6.80;6.20;;;20.60;52.20;;;;;;4941679;29;20206;-74
2022/01/01 06:30:01;;;;;;;6.43;5.82;;;20.70;52.40;;;;;;4938783;29;20229;-75
2022/01/01 06:32:31;;;;;;;6.10;5.60;;;20.70;52.40;;;;;;4923025;29;20214;-75
2022/01/01 06:34:58;;;;;;;6.20;5.70;;;20.70;52.40;;;;;;4938329;29;20182;-75
2022/01/01 06:37:25;;;;;;;5.68;5.13;;;20.70;52.30;;;;;;4938619;29;20213;-75
2022/01/01 06:39:50;;;;;;;5.82;5.32;;;20.70;52.30;;;;;;4938783;29;20197;-75
2022/01/01 06:42:16;;;;;;;6.63;6.03;;;20.70;52.30;;;;;;4938572;29;20186;-75
2022/01/01 06:44:42;;;;;;;6.07;5.57;;;20.60;52.20;;;;;;4922426;29;20179;-75
2022/01/01 06:47:09;;;;;;;5.95;5.45;;;20.70;52.20;;;;;;4953850;29;20267;-75
2022/01/01 06:49:35;;;;;;;6.00;5.50;;;20.60;52.20;;;;;;4938304;28;20204;-75
2022/01/01 06:52:03;;;;;;;5.88;5.38;;;20.70;52.40;;;;;;4941147;28;20189;-75
2022/01/01 06:54:28;;;;;;;5.78;5.28;;;20.70;52.30;;;;;;4974614;28;20213;-75
2022/01/01 06:56:54;;;;;;;6.15;5.57;;;20.70;52.30;;;;;;4957627;28;20692;-75
2022/01/01 06:59:20;;;;;;;5.82;5.40;;;20.70;52.20;;;;;;4957927;28;20186;-74
2022/01/01 07:01:46;;;;;;;5.60;5.13;;;20.70;52.20;;;;;;4941912;28;20190;-75
2022/01/01 07:04:11;;;;;;;5.90;5.40;;;20.70;52.20;;;;;;4942318;28;20194;-75
2022/01/01 07:06:37;;;;;;;5.80;5.30;;;20.70;52.20;;;;;;4975637;28;20185;-75
2022/01/01 07:09:04;;;;;;;5.30;4.90;;;20.70;52.20;;;;;;4958517;28;20304;-74
2022/01/01 07:11:30;;;;;;;5.20;4.80;;;20.70;52.20;;;;;;4958849;28;20189;-74
2022/01/01 07:13:55;;;;;;;5.60;5.10;;;20.60;52.10;;;;;;4942255;28;20221;-75
2022/01/01 07:16:21;;;;;;;5.65;5.15;;;20.70;52.10;;;;;;4942411;28;20313;-75
2022/01/01 07:18:47;;;;;;;4.95;4.55;;;20.70;52.10;;;;;;4942128;28;20205;-75
2022/01/01 07:21:13;;;;;;;5.13;4.72;;;20.70;52.20;;;;;;4941284;28;20187;-75
2022/01/01 07:23:39;;;;;;;5.25;4.82;;;20.70;52.20;;;;;;4958341;28;20283;-75
2022/01/01 07:26:05;;;;;;;5.18;4.78;;;20.60;51.90;;;;;;4975490;28;20226;-75
2022/01/01 07:28:31;;;;;;;5.10;4.60;;;20.60;51.90;;;;;;4941992;28;20245;-75
2022/01/01 07:30:57;;;;;;;5.45;4.95;;;20.60;52.00;;;;;;4940137;28;20201;-75
2022/01/01 07:33:23;;;;;;;5.20;4.80;;;20.70;52.10;;;;;;4939383;28;20209;-75
2022/01/01 07:35:48;;;;;;;5.38;4.93;;;20.70;51.90;;;;;;4941495;28;20264;-74
2022/01/01 07:38:14;;;;;;;5.43;4.93;;;20.70;51.80;;;;;;4941646;28;20220;-75
2022/01/01 07:40:40;;;;;;;4.90;4.50;;;20.60;51.80;;;;;;4942020;28;20284;-75
2022/01/01 07:43:15;;;;;;;5.43;5.00;;;20.60;51.80;;;;;;4957817;28;20193;-75
2022/01/01 07:45:42;;;;;;;5.30;4.80;;;20.70;51.90;;;;;;4958217;28;20193;-75
2022/01/01 07:48:08;;;;;;;5.70;5.20;;;20.60;51.80;;;;;;4942150;28;20242;-75
2022/01/01 07:50:35;;;;;;;4.85;4.53;;;20.60;51.80;;;;;;4948435;29;20202;-74
2022/01/01 07:53:02;;;;;;;4.90;4.50;;;20.60;51.80;;;;;;4952797;28;20202;-74
2022/01/01 07:55:28;;;;;;;5.18;4.70;;;20.70;51.80;;;;;;4954283;28;20190;-75
2022/01/01 07:57:54;;;;;;;4.50;4.10;;;20.70;51.80;;;;;;4940866;29;20206;-74
2022/01/01 08:00:20;;;;;;;5.07;4.68;;;20.70;51.80;;;;;;4956551;28;20250;-75
2022/01/01 08:02:47;;;;;;;4.68;4.28;;;20.70;51.80;;;;;;4940958;29;20194;-74
2022/01/01 08:05:17;;;;;;;5.20;4.70;;;20.70;51.80;;;;;;4940441;29;20191;-74
2022/01/01 08:07:44;;;;;;;5.30;4.38;;;20.70;51.80;;;;;;4941551;28;20213;-72
2022/01/01 08:10:11;;;;;;;5.25;4.85;;;20.70;51.80;;;;;;4960659;28;20178;-74
2022/01/01 08:12:39;;;;;;;5.25;4.78;;;20.70;51.80;;;;;;4976229;28;20287;-75
2022/01/01 08:15:06;;;;;;;4.53;4.13;;;20.70;51.80;;;;;;4959991;28;20337;-74
2022/01/01 08:17:32;;;;;;;4.50;4.10;;;20.70;52.50;;;;;;4977712;28;20213;-74
2022/01/01 08:19:58;;;;;;;5.03;4.63;;;20.70;51.90;;;;;;4960321;28;20189;-75
2022/01/01 08:22:24;;;;;;;4.95;4.55;;;20.70;51.80;;;;;;4944747;28;20205;-75
2022/01/01 08:24:50;;;;;;;4.85;4.40;;;20.70;51.80;;;;;;4963113;28;20182;-74
2022/01/01 08:27:16;;;;;;;4.72;4.32;;;20.70;51.80;;;;;;4963181;28;20583;-76
2022/01/01 08:29:42;;;;;;;4.80;4.40;;;20.70;51.80;;;;;;4963025;28;20192;-75
2022/01/01 08:32:09;;;;;;;4.80;4.40;;;20.70;51.90;;;;;;4981034;28;20189;-74
2022/01/01 08:34:35;;;;;;;4.68;4.20;;;20.70;51.80;;;;;;4951152;28;20284;-75
2022/01/01 08:37:01;;;;;;;4.68;4.30;;;20.70;51.80;;;;;;4974661;28;20181;-74
2022/01/01 08:39:27;;;;;;;4.88;4.47;;;20.70;51.80;;;;;;4951407;28;20568;-75
2022/01/01 08:41:53;;;;;;;4.70;4.30;;;20.70;51.80;;;;;;4943209;28;20193;-75
2022/01/01 08:44:18;;;;;;;4.47;4.07;;;20.70;51.80;;;;;;4943466;28;20645;-75
2022/01/01 08:46:44;;;;;;;5.15;4.75;;;20.70;51.80;;;;;;4959310;28;20201;-74
2022/01/01 08:49:10;;;;;;;4.38;4.07;;;20.70;51.80;;;;;;4942359;28;20202;-74
2022/01/01 08:51:41;;;;;;;5.10;4.60;;;20.70;51.80;;;;;;4959007;28;20189;-74
2022/01/01 08:54:07;;;;;;;5.43;4.97;;;20.70;51.90;;;;;;4943063;28;20709;-75
2022/01/01 08:56:33;;;;;;;5.25;4.75;;;20.70;51.80;;;;;;4942748;28;20188;-74
2022/01/01 08:58:59;;;;;;;5.40;4.90;;;20.70;51.90;;;;;;4969823;28;20219;-75
2022/01/01 09:01:26;;;;;;;5.80;5.30;;;20.70;51.80;;;;;;4921281;29;20286;-75
2022/01/01 09:03:52;;;;;;;5.97;5.47;;;20.70;51.80;;;;;;4936576;29;20232;-74
2022/01/01 09:06:18;;;;;;;5.60;5.10;;;20.70;51.80;;;;;;4936259;29;20190;-75
2022/01/01 09:08:43;;;;;;;5.85;5.35;;;20.70;51.90;;;;;;4920883;29;20254;-75
2022/01/01 09:11:12;;;;;;;5.78;5.28;;;20.70;51.80;;;;;;4920646;29;20234;-75
2022/01/01 09:13:41;;;;;;;5.05;4.65;;;20.70;51.80;;;;;;4936052;29;20669;-76
2022/01/01 09:16:10;;;;;;;5.75;5.25;;;20.70;51.80;;;;;;4919891;29;20188;-76
2022/01/01 09:18:38;;;;;;;6.25;5.68;;;20.70;52.50;;;;;;4904719;29;20270;-75
2022/01/01 09:21:05;;;;;;;5.60;5.10;;;20.70;51.80;;;;;;4955303;28;20224;-76
2022/01/01 09:23:31;;;;;;;5.10;4.65;;;20.70;51.80;;;;;;4958156;28;20181;-75
2022/01/01 09:25:57;;;;;;;5.18;4.68;;;20.70;51.80;;;;;;4957967;28;20201;-76
2022/01/01 09:28:23;;;;;;;5.78;5.28;;;20.70;51.80;;;;;;4958121;28;20202;-75
2022/01/01 09:30:48;;;;;;;5.47;5.03;;;20.70;51.80;;;;;;4958445;28;20684;-76
2022/01/01 09:33:14;;;;;;;5.35;4.88;;;20.70;51.80;;;;;;4973537;28;20211;-76
2022/01/01 09:35:40;;;;;;;5.70;5.13;;;20.70;51.80;;;;;;4942226;28;20217;-76
2022/01/01 09:38:06;;;;;;;5.13;4.72;;;20.70;51.80;;;;;;4958039;28;20209;-76
2022/01/01 09:40:33;;;;;;;5.78;5.13;;;20.70;51.60;;;;;;4975168;28;20184;-76
2022/01/01 09:42:59;;;;;;;5.53;5.03;;;20.70;51.60;;;;;;4942006;28;20197;-75
2022/01/01 09:45:26;;;;;;;5.50;5.00;;;20.70;51.60;;;;;;4958062;28;20189;-76
2022/01/01 09:47:52;;;;;;;5.22;4.72;;;20.70;51.60;;;;;;4957946;28;20205;-75
2022/01/01 09:50:18;;;;;;;4.95;4.55;;;20.70;51.40;;;;;;4956851;28;20190;-75
2022/01/01 09:52:43;;;;;;;5.72;5.22;;;20.70;51.40;;;;;;4922602;29;20272;-75
2022/01/01 09:55:09;;;;;;;5.38;4.88;;;20.70;51.40;;;;;;4938386;29;20182;-75
2022/01/01 09:57:36;;;;;;;5.20;4.70;;;20.70;51.40;;;;;;4922775;29;20337;-76
2022/01/01 10:00:04;;;;;;;5.15;4.75;;;20.70;51.40;;;;;;4954482;29;20194;-74
2022/01/01 10:02:31;;;;;;;5.35;4.95;;;20.70;51.30;;;;;;4954626;29;20206;-75
2022/01/01 10:05:05;;;;;;;5.30;4.80;;;20.70;51.40;;;;;;4949237;28;20340;-76
2022/01/01 10:07:31;;;;;;;5.22;4.82;;;20.70;51.30;;;;;;4957357;28;20229;-75
2022/01/01 10:09:58;;;;;;;5.38;4.88;;;20.70;51.30;;;;;;4941178;28;20209;-71
2022/01/01 10:12:43;;;;;;;5.00;4.60;;;20.50;48.90;;;;;;4934925;29;20271;-73
2022/01/01 10:15:10;;;;;;;5.07;4.65;;;20.10;48.90;;;;;;4936018;29;20248;-73
2022/01/01 10:17:36;;;;;;;5.13;4.63;;;20.20;49.60;;;;;;4937783;29;20214;-73
2022/01/01 10:20:04;;;;;;;5.20;4.70;;;20.30;50.50;;;;;;4937414;29;20194;-73
2022/01/01 10:22:30;;;;;;;4.93;4.40;;;20.40;50.60;;;;;;4922168;29;20261;-73
2022/01/01 10:28:01;;;;;;;5.55;4.35;;;20.50;50.70;;;;;;4938008;29;20214;-73
2022/01/01 10:30:40;;;;;;;5.50;5.00;;;20.50;50.90;;;;;;4921816;29;20240;-72
2022/01/01 10:33:16;;;;;;;5.78;4.68;;;20.60;51.10;;;;;;4939138;28;20224;-73
2022/01/01 10:35:52;;;;;;;6.22;4.65;;;20.60;51.20;;;;;;4953444;28;20197;-73
2022/01/01 10:38:26;;;;;;;10.25;4.88;;;20.60;51.30;;;;;;4953598;29;20217;-73
2022/01/01 10:41:09;;;;;;;6.82;5.15;;;20.70;51.80;;;;;;4953777;29;20179;-73
2022/01/01 10:43:44;;;;;;;7.15;4.80;;;20.70;51.80;;;;;;4937686;29;20194;-73
2022/01/01 10:46:15;;;;;;;4.95;4.53;;;20.80;51.90;;;;;;4937625;29;20549;-73
2022/01/01 10:51:13;;;;;;;5.90;4.75;;;20.80;52.50;;;;;;4953365;29;20191;-73
2022/01/01 10:53:39;;;;;;;7.95;4.65;;;20.80;52.60;;;;;;4937584;29;20213;-73
2022/01/01 10:56:20;;;;;;;4.82;4.43;;;20.80;52.60;;;;;;4937075;29;20182;-73
2022/01/01 10:59:02;;;;;;;6.63;4.68;;;20.80;52.80;;;;;;4955248;28;20210;-73
2022/01/01 11:01:27;;;;;;;4.82;3.92;;;20.80;53.10;;;;;;4959961;28;20240;-74
2022/01/01 11:03:56;;;;;;;6.03;4.90;;;20.80;53.20;;;;;;4949510;28;20198;-73
2022/01/01 11:06:22;;;;;;;6.68;4.75;;;20.90;53.40;;;;;;4953908;28;20222;-73
2022/01/01 11:08:49;;;;;;;5.35;4.15;;;20.90;53.40;;;;;;4952587;29;20242;-73
2022/01/01 11:11:15;;;;;;;5.28;4.63;;;20.90;53.60;;;;;;4929001;28;20196;-73
2022/01/01 11:13:43;;;;;;;4.65;4.20;;;21.00;53.80;;;;;;4956646;28;20209;-73
2022/01/01 11:16:09;;;;;;;5.50;4.40;;;20.90;53.80;;;;;;4967262;28;20198;-73
2022/01/01 11:18:39;;;;;;;6.38;4.32;;;20.90;54.50;;;;;;4956618;28;20205;-73
2022/01/01 11:21:05;;;;;;;4.97;4.47;;;20.90;54.00;;;;;;4934498;28;20182;-74
2022/01/01 11:23:32;;;;;;;6.25;4.20;;;20.90;54.20;;;;;;4937494;29;20195;-73
2022/01/01 11:25:59;;;;;;;4.30;3.90;;;21.00;54.30;;;;;;4937271;29;20194;-73
2022/01/01 11:28:25;;;;;;;6.25;3.88;;;21.00;54.40;;;;;;4955452;28;20209;-73
2022/01/01 11:30:57;;;;;;;4.82;3.70;;;21.00;54.50;;;;;;4954370;28;20190;-73
2022/01/01 11:33:34;;;;;;;4.03;3.53;;;21.00;54.60;;;;;;4950092;29;20206;-74
2022/01/01 11:36:01;;;;;;;4.63;3.83;;;21.00;54.50;;;;;;4944316;28;20544;-73
2022/01/01 11:38:30;;;;;;;4.25;3.47;;;21.00;54.60;;;;;;4940146;29;20229;-74
2022/01/01 11:41:02;;;;;;;5.10;3.40;;;21.00;54.70;;;;;;4943980;28;20193;-74
2022/01/01 11:43:56;;;;;;;4.22;3.33;;;21.00;54.70;;;;;;4952832;29;20205;-74
2022/01/01 11:46:27;;;;;;;9.60;3.90;;;21.00;54.90;;;;;;4905634;29;20254;-74
2022/01/01 11:48:58;;;;;;;3.65;3.20;;;21.00;54.90;;;;;;4940301;28;20244;-74
2022/01/01 11:51:52;;;;;;;5.63;3.50;;;21.10;54.90;;;;;;4965500;28;20567;-74
2022/01/01 11:54:20;;;;;;;3.95;3.45;;;21.10;55.10;;;;;;4965328;28;20271;-72
2022/01/01 11:57:06;;;;;;;4.28;3.33;;;21.10;55.10;;;;;;4951927;29;20214;-72
2022/01/01 11:59:39;;;;;;;5.57;3.30;;;21.10;55.20;;;;;;4936157;29;20225;-74
2022/01/01 12:02:19;;;;;;;3.95;3.35;;;21.10;55.10;;;;;;4942083;28;20253;-73
2022/01/01 12:04:55;;;;;;;4.57;3.20;;;21.10;55.20;;;;;;4943337;28;20212;-73
2022/01/01 12:07:21;;;;;;;3.97;3.22;;;21.10;55.30;;;;;;4934253;29;20245;-72
2022/01/01 12:10:02;;;;;;;3.05;2.75;;;21.10;55.50;;;;;;4959616;28;20217;-73
2022/01/01 12:12:48;;;;;;;5.22;3.35;;;21.10;55.60;;;;;;4943084;28;20229;-73
2022/01/01 12:15:27;;;;;;;3.53;3.10;;;21.10;55.70;;;;;;4943541;28;20205;-73
2022/01/01 12:18:03;;;;;;;4.03;2.70;;;21.10;55.90;;;;;;4968366;28;20216;-73
2022/01/01 12:20:35;;;;;;;4.28;2.80;;;21.20;56.10;;;;;;4965523;28;20178;-73
2022/01/01 12:23:09;;;;;;;3.40;3.00;;;21.20;56.10;;;;;;4956050;28;20255;-73
2022/01/01 12:25:37;;;;;;;6.10;3.28;;;21.20;56.20;;;;;;4975212;28;20197;-73
2022/01/01 12:28:10;;;;;;;7.97;3.25;;;21.20;56.40;;;;;;4939192;28;20297;-73
2022/01/01 12:30:42;;;;;;;4.75;3.15;;;21.20;56.40;;;;;;4949994;29;20219;-73
2022/01/01 12:33:19;;;;;;;4.15;3.03;;;21.20;56.40;;;;;;4940344;29;20222;-73
2022/01/01 12:35:55;;;;;;;23.10;7.95;;;21.20;56.40;;;;;;4956562;28;20186;-74
2022/01/01 12:38:27;;;;;;;18.10;7.03;;;21.20;56.50;;;;;;4964772;28;20237;-73
2022/01/01 12:41:16;;;;;;;22.73;7.75;;;21.20;56.50;;;;;;4939779;28;20190;-73
2022/01/01 12:43:58;;;;;;;24.02;9.07;;;21.20;56.50;;;;;;4940071;29;20186;-73
2022/01/01 12:46:31;;;;;;;18.10;7.85;;;21.20;56.50;;;;;;4939741;29;20605;-73
2022/01/01 12:49:01;;;;;;;19.27;8.20;;;21.20;56.50;;;;;;4940007;29;20246;-73
2022/01/01 12:51:30;;;;;;;22.60;8.25;;;21.20;56.60;;;;;;4939768;29;20269;-73